createdAt,value
2023-03-14T00:01:22.960Z,11.04
2023-03-14T00:03:52.633Z,10.98
2023-03-14T00:06:22.465Z,10.99
2023-03-14T00:08:49.368Z,10.96
2023-03-14T00:11:19.510Z,10.95
2023-03-14T00:13:50.846Z,10.92
2023-03-14T00:16:18.022Z,10.93
2023-03-14T00:18:45.022Z,10.84
2023-03-14T00:21:14.008Z,10.83
2023-03-14T00:23:42.619Z,10.85
2023-03-14T00:26:15.847Z,10.82
2023-03-14T00:28:51.334Z,10.78
2023-03-14T00:31:18.443Z,10.77
2023-03-14T00:33:46.296Z,10.77
2023-03-14T00:36:16.084Z,10.77
2023-03-14T00:38:43.832Z,10.73
2023-03-14T00:41:13.251Z,10.73
2023-03-14T00:43:40.513Z,10.73
2023-03-14T00:46:10.595Z,10.74
2023-03-14T00:48:40.487Z,10.70
2023-03-14T00:51:09.894Z,10.67
2023-03-14T00:53:38.312Z,10.68
2023-03-14T00:56:07.726Z,10.68
2023-03-14T00:58:34.807Z,10.61
2023-03-14T01:01:07.182Z,10.63
2023-03-14T01:03:36.052Z,10.61
2023-03-14T01:06:26.641Z,10.58
2023-03-14T01:08:54.212Z,10.56
2023-03-14T01:11:27.084Z,10.53
2023-03-14T01:13:59.768Z,10.57
2023-03-14T01:16:31.388Z,10.53
2023-03-14T01:19:01.805Z,10.52
2023-03-14T01:21:31.650Z,10.50
2023-03-14T01:24:01.313Z,10.47
2023-03-14T01:26:31.463Z,10.45
2023-03-14T01:28:59.411Z,10.43
2023-03-14T01:32:13.306Z,10.40
2023-03-14T01:34:38.624Z,10.44
2023-03-14T01:37:09.196Z,10.40
2023-03-14T01:39:38.207Z,10.40
2023-03-14T01:42:12.807Z,10.40
2023-03-14T01:44:58.419Z,10.42
2023-03-14T01:47:28.346Z,10.41
2023-03-14T01:49:57.182Z,10.41
2023-03-14T01:52:29.075Z,10.37
2023-03-14T01:55:01.551Z,10.39
2023-03-14T01:57:38.585Z,10.37
2023-03-14T02:00:24.709Z,10.39
2023-03-14T02:02:58.698Z,10.44
2023-03-14T02:05:34.498Z,10.42
2023-03-14T02:08:13.039Z,10.37
2023-03-14T02:14:04.262Z,10.39
2023-03-14T02:16:51.757Z,10.35
2023-03-14T02:19:51.718Z,10.39
2023-03-14T02:22:46.741Z,10.35
2023-03-14T02:25:54.309Z,10.38
2023-03-14T02:28:30.580Z,10.34
2023-03-14T02:31:11.081Z,10.33
2023-03-14T02:33:43.788Z,10.34
2023-03-14T02:36:16.253Z,10.30
2023-03-14T02:38:55.011Z,10.35
2023-03-14T02:41:27.048Z,10.33
2023-03-14T02:44:01.417Z,10.32
2023-03-14T02:49:17.888Z,10.35
2023-03-14T02:51:50.934Z,10.41
2023-03-14T02:54:27.257Z,10.34
2023-03-14T02:56:59.744Z,10.35
2023-03-14T02:59:40.094Z,10.33
2023-03-14T03:02:29.280Z,10.37
2023-03-14T03:05:00.605Z,10.36
2023-03-14T03:07:35.419Z,10.30
2023-03-14T03:10:05.462Z,10.31
2023-03-14T03:12:34.888Z,10.30
2023-03-14T03:15:10.156Z,10.18
2023-03-14T03:17:45.248Z,10.22
2023-03-14T03:20:12.521Z,10.22
2023-03-14T03:22:42.263Z,10.24
2023-03-14T03:25:17.009Z,10.22
2023-03-14T03:27:51.781Z,10.18
2023-03-14T03:30:25.104Z,10.12
2023-03-14T03:33:03.402Z,10.11
2023-03-14T03:35:40.593Z,10.12
2023-03-14T03:38:28.188Z,10.09
2023-03-14T03:41:07.582Z,10.10
2023-03-14T03:43:44.238Z,10.10
2023-03-14T03:46:23.371Z,10.12
2023-03-14T03:49:10.217Z,10.15
2023-03-14T03:51:54.451Z,10.11
2023-03-14T03:54:24.534Z,10.13
2023-03-14T03:56:52.590Z,10.10
2023-03-14T03:59:34.056Z,10.13
2023-03-14T04:02:06.875Z,10.11
2023-03-14T04:04:42.598Z,10.11
2023-03-14T04:07:18.241Z,10.11
2023-03-14T04:09:47.531Z,10.11
2023-03-14T04:12:51.233Z,10.10
2023-03-14T04:15:24.566Z,10.06
2023-03-14T04:18:06.246Z,10.02
2023-03-14T04:20:38.456Z,10.08
2023-03-14T04:23:47.298Z,10.02
2023-03-14T04:32:27.114Z,10.09
2023-03-14T04:34:54.135Z,10.04
2023-03-14T04:37:21.048Z,10.04
2023-03-14T04:39:47.966Z,9.99
2023-03-14T04:42:25.936Z,10.00
2023-03-14T04:44:53.009Z,9.96
2023-03-14T04:47:23.359Z,9.91
2023-03-14T04:49:51.363Z,9.99
2023-03-14T04:52:19.054Z,9.98
2023-03-14T04:55:15.349Z,9.99
2023-03-14T04:58:26.021Z,9.97
2023-03-14T05:01:31.380Z,9.92
2023-03-14T05:04:52.067Z,9.97
2023-03-14T05:07:51.367Z,9.96
2023-03-14T05:11:01.853Z,9.92
2023-03-14T05:13:52.134Z,9.99
2023-03-14T05:16:50.767Z,9.94
2023-03-14T05:20:07.980Z,9.94
2023-03-14T05:22:53.929Z,9.93
2023-03-14T05:25:33.961Z,9.96
2023-03-14T05:28:13.585Z,9.94
2023-03-14T05:31:08.294Z,9.95
2023-03-14T05:33:54.038Z,9.94
2023-03-14T05:36:35.724Z,9.93
2023-03-14T05:39:34.796Z,9.92
2023-03-14T05:42:22.017Z,9.91
2023-03-14T05:45:17.890Z,9.88
2023-03-14T05:48:13.511Z,9.90
2023-03-14T05:51:00.521Z,9.93
2023-03-14T05:53:47.782Z,9.93
2023-03-14T05:56:35.792Z,9.89
2023-03-14T05:59:10.113Z,9.95
2023-03-14T06:01:58.234Z,9.88
2023-03-14T06:04:30.666Z,9.92
2023-03-14T06:07:00.349Z,9.96
2023-03-14T06:09:29.695Z,9.93
2023-03-14T06:11:59.464Z,9.90
2023-03-14T06:14:26.933Z,9.92
2023-03-14T06:16:56.351Z,9.97
2023-03-14T06:19:27.637Z,9.97
2023-03-14T06:21:57.456Z,9.99
2023-03-14T06:24:26.241Z,10.00
2023-03-14T06:26:53.589Z,10.09
2023-03-14T06:29:23.720Z,10.07
2023-03-14T06:31:55.592Z,10.11
2023-03-14T06:34:26.958Z,10.10
2023-03-14T06:36:59.647Z,10.15
2023-03-14T06:39:29.968Z,10.13
2023-03-14T06:42:07.904Z,10.19
2023-03-14T06:44:35.606Z,10.16
2023-03-14T06:47:02.980Z,10.22
2023-03-14T06:49:29.867Z,10.24
2023-03-14T06:51:59.110Z,10.26
2023-03-14T06:54:26.048Z,10.27
2023-03-14T06:56:52.766Z,10.31
2023-03-14T06:59:19.539Z,10.33
2023-03-14T07:01:49.645Z,10.32
2023-03-14T07:04:16.449Z,10.35
2023-03-14T07:06:47.556Z,10.40
2023-03-14T07:09:20.767Z,10.45
2023-03-14T07:11:53.213Z,10.47
2023-03-14T07:14:21.926Z,10.45
2023-03-14T07:16:49.447Z,10.47
2023-03-14T07:19:16.491Z,10.49
2023-03-14T07:21:43.336Z,10.47
2023-03-14T07:24:14.060Z,10.47
2023-03-14T07:26:40.955Z,10.48
2023-03-14T07:29:07.909Z,10.46
2023-03-14T07:31:35.115Z,10.46
2023-03-14T07:34:04.112Z,10.40
2023-03-14T07:36:35.567Z,10.44
2023-03-14T07:39:06.017Z,10.47
2023-03-14T07:41:50.526Z,10.49
2023-03-14T07:44:41.568Z,10.47
2023-03-14T07:47:08.300Z,10.45
2023-03-14T07:49:35.057Z,10.51
2023-03-14T07:52:01.853Z,10.47
2023-03-14T07:54:28.758Z,10.49
2023-03-14T07:56:55.548Z,10.52
2023-03-14T07:59:22.338Z,10.51
2023-03-14T08:01:49.094Z,10.55
2023-03-14T08:04:15.893Z,10.56
2023-03-14T08:06:42.720Z,10.60
2023-03-14T08:09:09.886Z,10.66
2023-03-14T08:11:36.716Z,10.74
2023-03-14T08:14:03.614Z,10.71
2023-03-14T08:16:30.560Z,10.76
2023-03-14T08:18:57.767Z,10.77
2023-03-14T08:21:24.578Z,10.77
2023-03-14T08:23:51.411Z,10.85
2023-03-14T08:26:18.199Z,10.92
2023-03-14T08:28:45.026Z,11.05
2023-03-14T08:31:11.897Z,11.10
2023-03-14T08:33:39.764Z,11.11
2023-03-14T08:36:06.958Z,11.17
2023-03-14T08:38:33.829Z,11.16
2023-03-14T08:41:02.484Z,11.14
2023-03-14T08:43:29.765Z,11.14
2023-03-14T08:46:00.356Z,11.18
2023-03-14T08:48:28.107Z,11.19
2023-03-14T08:50:54.985Z,11.14
2023-03-14T08:53:23.473Z,11.15
2023-03-14T08:55:55.073Z,11.17
2023-03-14T08:58:23.859Z,11.14
2023-03-14T09:00:51.195Z,11.12
2023-03-14T09:03:20.990Z,11.13
2023-03-14T09:05:50.286Z,11.21
2023-03-14T09:08:20.473Z,11.22
2023-03-14T09:10:48.194Z,11.20
2023-03-14T09:13:27.188Z,11.24
2023-03-14T09:15:58.344Z,11.28
2023-03-14T09:18:26.779Z,11.31
2023-03-14T09:20:53.826Z,11.42
2023-03-14T09:23:20.861Z,11.41
2023-03-14T09:25:47.943Z,11.38
2023-03-14T09:28:17.191Z,11.32
2023-03-14T09:30:44.910Z,11.26
2023-03-14T09:33:16.698Z,11.24
2023-03-14T09:35:49.367Z,11.26
2023-03-14T09:38:17.494Z,11.29
2023-03-14T09:40:44.374Z,11.34
2023-03-14T09:43:14.874Z,11.40
2023-03-14T10:51:51.619Z,11.54
2023-03-14T10:54:28.263Z,11.53
2023-03-14T10:57:02.306Z,11.55
2023-03-14T10:59:36.448Z,11.60
2023-03-14T11:02:27.443Z,11.61
2023-03-14T11:05:48.423Z,11.57
2023-03-14T11:08:37.100Z,11.58
2023-03-14T11:11:09.721Z,11.59
2023-03-14T11:13:49.530Z,11.59
2023-03-14T11:17:08.467Z,11.58
2023-03-14T11:19:58.409Z,11.57
2023-03-14T11:22:41.274Z,11.52
2023-03-14T11:25:14.984Z,11.58
2023-03-14T11:27:57.153Z,11.58
2023-03-14T11:30:54.594Z,11.57
2023-03-14T11:33:29.231Z,11.59
2023-03-14T11:36:09.151Z,11.57
2023-03-14T11:38:44.513Z,11.55
2023-03-14T11:41:15.974Z,11.62
2023-03-14T11:43:44.202Z,11.63
2023-03-14T11:46:20.019Z,11.67
2023-03-14T11:49:09.616Z,11.69
2023-03-14T11:51:45.826Z,11.74
2023-03-14T11:54:38.508Z,11.76
2023-03-14T11:57:06.856Z,11.79
2023-03-14T11:59:47.865Z,11.74
2023-03-14T12:02:33.238Z,11.76
2023-03-14T12:05:15.132Z,11.76
2023-03-14T12:08:24.513Z,11.77
2023-03-14T12:10:55.788Z,11.71
2023-03-14T12:13:22.817Z,11.63
2023-03-14T12:16:01.679Z,11.60
2023-03-14T12:18:39.749Z,11.57
2023-03-14T12:21:12.356Z,11.57
2023-03-14T12:23:44.493Z,11.51
2023-03-14T12:26:24.437Z,11.44
2023-03-14T12:28:53.825Z,11.28
2023-03-14T12:31:30.210Z,11.19
2023-03-14T12:34:12.236Z,11.14
2023-03-14T12:36:51.148Z,11.22
2023-03-14T12:39:29.472Z,11.35
2023-03-14T12:42:42.515Z,11.32
2023-03-14T12:45:33.754Z,11.43
2023-03-14T12:48:20.648Z,11.57
2023-03-14T12:50:55.451Z,11.71
2023-03-14T12:53:44.231Z,11.84
2023-03-14T12:56:16.242Z,11.87
2023-03-14T12:58:50.341Z,12.01
2023-03-14T13:01:19.683Z,11.98
2023-03-14T13:03:54.580Z,11.90
2023-03-14T13:06:55.197Z,11.79
2023-03-14T13:09:52.886Z,11.78
2023-03-14T13:12:21.039Z,11.84
2023-03-14T13:14:52.630Z,11.87
2023-03-14T13:17:36.602Z,11.96
2023-03-14T13:20:13.029Z,12.05
2023-03-14T13:22:40.035Z,12.04
2023-03-14T13:25:10.613Z,11.99
2023-03-14T13:27:37.607Z,12.01
2023-03-14T13:30:17.348Z,12.05
2023-03-14T13:32:45.570Z,12.10
2023-03-14T13:35:17.812Z,12.11
2023-03-14T13:37:44.620Z,12.24
2023-03-14T13:40:25.504Z,12.46
2023-03-14T13:43:00.259Z,12.68
2023-03-14T13:45:26.967Z,12.88
2023-03-14T13:47:53.693Z,13.08
2023-03-14T13:50:20.581Z,13.27
2023-03-14T13:52:48.346Z,13.23
2023-03-14T13:55:18.504Z,13.11
2023-03-14T13:57:56.888Z,13.08
2023-03-14T14:00:28.308Z,12.88
2023-03-14T14:02:56.264Z,12.78
2023-03-14T14:05:24.364Z,12.80
2023-03-14T14:07:52.415Z,12.80
2023-03-14T14:10:19.690Z,12.76
2023-03-14T14:13:00.542Z,12.75
2023-03-14T14:15:27.771Z,12.76
2023-03-14T14:17:58.399Z,13.05
2023-03-14T14:20:35.933Z,13.01
2023-03-14T14:23:04.687Z,12.98
2023-03-14T14:25:31.882Z,12.91
2023-03-14T14:27:58.977Z,12.95
2023-03-14T14:30:33.018Z,13.07
2023-03-14T14:33:21.639Z,13.18
2023-03-14T14:35:58.819Z,13.15
2023-03-14T14:38:26.280Z,13.06
2023-03-14T14:40:56.240Z,12.91
2023-03-14T14:43:25.406Z,12.72
2023-03-14T14:45:54.375Z,12.58
2023-03-14T14:48:24.265Z,12.45
2023-03-14T14:50:55.758Z,12.34
2023-03-14T14:53:32.730Z,12.27
2023-03-14T14:56:01.423Z,12.23
2023-03-14T14:58:29.880Z,12.15
2023-03-14T15:01:16.029Z,12.08
2023-03-14T15:03:48.396Z,11.99
2023-03-14T15:06:16.706Z,11.89
2023-03-14T15:08:44.989Z,11.82
2023-03-14T15:11:19.613Z,11.62
2023-03-14T15:13:46.405Z,11.15
2023-03-14T15:16:15.463Z,10.49
2023-03-14T15:18:44.121Z,10.10
2023-03-14T15:21:11.577Z,10.10
2023-03-14T15:23:38.552Z,10.01
2023-03-14T15:26:12.892Z,8.38
2023-03-14T15:28:39.928Z,7.20
2023-03-14T15:31:10.770Z,6.48
2023-03-14T15:33:37.571Z,5.85
2023-03-14T15:36:06.163Z,5.41
2023-03-14T15:38:32.891Z,5.01
2023-03-14T15:40:59.720Z,4.68
2023-03-14T15:43:26.445Z,4.24
2023-03-14T15:45:53.527Z,4.18
2023-03-14T15:48:22.478Z,4.05
2023-03-14T15:50:49.224Z,3.68
2023-03-14T15:53:16.207Z,3.34
2023-03-14T15:55:42.974Z,2.89
2023-03-14T15:58:21.107Z,2.55
2023-03-14T16:00:49.222Z,2.28
2023-03-14T16:03:15.976Z,2.09
2023-03-14T16:05:42.966Z,1.90
2023-03-14T16:08:09.863Z,1.76
2023-03-14T16:10:36.749Z,1.69
2023-03-14T16:13:03.556Z,1.50
2023-03-14T16:15:30.386Z,1.73
2023-03-14T16:17:57.192Z,1.68
2023-03-14T16:20:24.649Z,1.75
2023-03-14T16:22:55.060Z,1.76
2023-03-14T16:25:21.861Z,1.76
2023-03-14T16:27:51.555Z,1.65
2023-03-14T16:30:20.624Z,1.71
2023-03-14T16:32:48.479Z,1.74
2023-03-14T16:35:15.450Z,1.78
2023-03-14T16:37:42.189Z,1.53
2023-03-14T16:40:13.116Z,1.45
2023-03-14T16:42:54.934Z,1.51
2023-03-14T16:45:27.223Z,1.39
2023-03-14T16:47:54.022Z,1.40
2023-03-14T16:50:20.732Z,1.29
2023-03-14T16:52:49.869Z,1.29
2023-03-14T16:55:16.740Z,1.43
2023-03-14T16:57:43.478Z,1.44
2023-03-14T17:00:12.304Z,1.39
2023-03-14T17:02:39.222Z,1.36
2023-03-14T17:05:06.311Z,1.40
2023-03-14T17:07:33.158Z,1.36
2023-03-14T17:09:59.889Z,1.52
2023-03-14T17:12:26.674Z,1.44
2023-03-14T17:14:54.158Z,1.51
2023-03-14T17:17:20.834Z,1.60
2023-03-14T17:19:47.599Z,1.43
2023-03-14T17:22:23.292Z,1.57
2023-03-14T17:24:51.515Z,1.54
2023-03-14T17:27:20.583Z,1.22
2023-03-14T17:29:48.343Z,1.30
2023-03-14T17:32:16.153Z,1.26
2023-03-14T17:34:42.940Z,1.35
2023-03-14T17:37:09.649Z,1.44
2023-03-14T17:39:36.530Z,1.78
2023-03-14T17:42:03.482Z,1.64
2023-03-14T17:44:31.739Z,1.75
2023-03-14T17:46:59.593Z,1.74
2023-03-14T17:49:26.347Z,1.82
2023-03-14T17:51:53.270Z,1.66
2023-03-14T17:54:20.569Z,1.68
2023-03-14T17:56:49.128Z,1.74
2023-03-14T17:59:16.370Z,2.01
2023-03-14T18:01:44.352Z,1.76
2023-03-14T18:04:11.319Z,1.76
2023-03-14T18:06:38.188Z,1.52
2023-03-14T18:09:06.076Z,1.74
2023-03-14T18:11:32.927Z,1.78
2023-03-14T18:14:01.781Z,1.83
2023-03-14T18:16:28.730Z,1.84
2023-03-14T18:18:57.689Z,1.71
2023-03-14T18:21:24.387Z,1.61
2023-03-14T18:23:51.278Z,1.58
2023-03-14T18:26:18.656Z,1.53
2023-03-14T18:28:47.127Z,1.66
2023-03-14T18:31:18.279Z,1.96
2023-03-14T18:33:47.982Z,1.83
2023-03-14T18:36:15.539Z,1.77
2023-03-14T18:38:46.515Z,2.00
2023-03-14T18:41:15.708Z,1.95
2023-03-14T18:43:43.297Z,1.67
2023-03-14T18:46:13.238Z,1.66
2023-03-14T18:48:42.632Z,1.69
2023-03-14T18:51:11.763Z,1.67
2023-03-14T18:53:39.348Z,1.70
2023-03-14T18:56:06.733Z,1.97
2023-03-14T18:58:34.004Z,1.90
2023-03-14T19:01:03.667Z,1.82
2023-03-14T19:03:32.013Z,1.99
2023-03-14T19:06:00.761Z,2.08
2023-03-14T19:08:28.808Z,2.29
2023-03-14T19:10:59.213Z,2.24
2023-03-14T19:13:27.554Z,2.32
2023-03-14T19:15:54.553Z,2.13
2023-03-14T19:18:21.805Z,2.14
2023-03-14T19:21:03.741Z,2.02
2023-03-14T19:23:31.571Z,2.06
2023-03-14T19:25:58.387Z,2.08
2023-03-14T19:28:25.584Z,2.19
2023-03-14T19:30:52.379Z,2.22
2023-03-14T19:33:20.017Z,2.13
2023-03-14T19:35:47.446Z,1.99
2023-03-14T19:38:15.077Z,2.12
2023-03-14T19:40:44.999Z,2.12
2023-03-14T19:43:12.493Z,2.02
2023-03-14T19:45:39.565Z,2.04
2023-03-14T19:48:07.478Z,1.94
2023-03-14T19:50:35.177Z,1.92
2023-03-14T19:53:03.621Z,2.04
2023-03-14T19:55:35.261Z,1.97
2023-03-14T19:58:02.456Z,1.94
2023-03-14T20:00:29.735Z,1.96
2023-03-14T20:02:56.531Z,1.83
2023-03-14T20:05:24.456Z,1.92
2023-03-14T20:07:51.963Z,1.81
2023-03-14T20:10:23.123Z,1.90
2023-03-14T20:12:51.114Z,1.82
2023-03-14T20:15:19.684Z,1.77
2023-03-14T20:17:49.687Z,1.75
2023-03-14T20:20:17.458Z,1.78
2023-03-14T20:22:44.763Z,1.84
2023-03-14T20:25:14.371Z,1.94
2023-03-14T20:27:41.602Z,1.91
2023-03-14T20:30:13.106Z,1.82
2023-03-14T20:32:41.177Z,1.78
2023-03-14T20:35:10.295Z,1.78
2023-03-14T20:37:37.672Z,1.80
2023-03-14T20:40:09.360Z,1.65
2023-03-14T20:42:36.219Z,1.64
2023-03-14T20:45:02.906Z,1.60
2023-03-14T20:47:56.571Z,1.71
2023-03-14T20:50:34.853Z,1.72
2023-03-14T20:53:15.572Z,1.66
2023-03-14T20:55:46.036Z,1.70
2023-03-14T20:58:13.440Z,1.64
2023-03-14T21:00:51.288Z,1.61
2023-03-14T21:03:19.205Z,1.59
2023-03-14T21:05:50.599Z,1.60
2023-03-14T21:08:21.898Z,1.52
2023-03-14T21:11:16.968Z,1.37
2023-03-14T21:14:14.288Z,1.48
2023-03-14T21:16:40.144Z,1.44
2023-03-14T21:19:09.954Z,1.37
2023-03-14T21:21:40.341Z,1.37
2023-03-14T21:24:16.457Z,1.39
2023-03-14T21:26:48.073Z,1.26
2023-03-14T21:29:15.223Z,1.38
2023-03-14T21:31:46.796Z,1.38
2023-03-14T21:34:14.018Z,1.36
2023-03-14T21:36:43.673Z,1.20
2023-03-14T21:39:16.049Z,1.25
2023-03-14T21:41:46.526Z,1.26
2023-03-14T21:44:26.728Z,1.21
2023-03-14T21:47:02.260Z,1.15
2023-03-14T21:49:39.125Z,1.28
2023-03-14T21:52:07.773Z,1.08
2023-03-14T21:54:35.103Z,1.13
2023-03-14T21:57:08.232Z,1.14
2023-03-14T21:59:39.172Z,0.95
2023-03-14T22:02:09.017Z,1.03
2023-03-14T22:04:39.333Z,0.99
2023-03-14T22:07:22.550Z,1.05
2023-03-14T22:09:59.268Z,1.16
2023-03-14T22:12:31.859Z,1.13
2023-03-14T22:15:00.960Z,0.98
2023-03-14T22:17:29.448Z,1.16
2023-03-14T22:19:59.176Z,1.14
2023-03-14T22:22:26.495Z,1.03
2023-03-14T22:24:56.551Z,0.96
2023-03-14T22:27:26.579Z,0.96
2023-03-14T22:29:56.126Z,0.93
2023-03-14T22:32:23.547Z,0.89
2023-03-14T22:34:50.754Z,0.82
2023-03-14T22:37:17.861Z,0.80
2023-03-14T22:39:50.337Z,0.77
2023-03-14T22:42:17.494Z,0.76
2023-03-14T22:44:52.100Z,0.68
2023-03-14T22:47:22.171Z,0.72
2023-03-14T22:49:49.060Z,0.73
2023-03-14T22:52:17.758Z,0.77
2023-03-14T22:54:44.626Z,0.76
2023-03-14T22:57:13.976Z,0.69
2023-03-14T22:59:43.220Z,0.69
2023-03-14T23:02:15.520Z,0.85
2023-03-14T23:04:43.007Z,0.74
2023-03-14T23:07:12.939Z,0.72
2023-03-14T23:09:47.421Z,0.79
2023-03-14T23:12:19.439Z,0.67
2023-03-14T23:14:46.360Z,0.76
2023-03-14T23:17:31.488Z,0.79
2023-03-14T23:19:59.634Z,0.86
2023-03-14T23:22:35.350Z,0.74
2023-03-14T23:25:05.069Z,0.66
2023-03-14T23:27:37.545Z,0.74
2023-03-14T23:30:18.108Z,0.76
2023-03-14T23:32:45.303Z,0.69
2023-03-14T23:35:14.154Z,0.66
2023-03-14T23:37:43.410Z,0.88
2023-03-14T23:40:16.475Z,0.87
2023-03-14T23:42:50.838Z,0.80
2023-03-14T23:45:17.888Z,1.04
2023-03-14T23:47:44.876Z,1.15
2023-03-14T23:50:12.091Z,1.28
2023-03-14T23:52:39.213Z,1.24
2023-03-14T23:55:11.865Z,1.11
2023-03-14T23:57:43.779Z,1.04
